sensor_id;sensor_type;location;lat;lon;timestamp;pressure;altitude;pressure_sealevel;temperature;humidity
60061;BME280;45933;51.336;12.612;2024-03-02T00:00:00;98861.06;;;8.61;65.27
60061;BME280;45933;51.336;12.612;2024-03-02T00:02:26;98852.41;;;8.61;65.39
60061;BME280;45933;51.336;12.612;2024-03-02T00:04:51;98851.56;;;8.60;65.23
60061;BME280;45933;51.336;12.612;2024-03-02T00:07:17;98853.31;;;8.58;65.41
60061;BME280;45933;51.336;12.612;2024-03-02T00:09:43;98854.19;;;8.57;65.31
60061;BME280;45933;51.336;12.612;2024-03-02T00:12:11;98852.44;;;8.59;65.21
60061;BME280;45933;51.336;12.612;2024-03-02T00:14:40;98842.94;;;8.57;65.55
60061;BME280;45933;51.336;12.612;2024-03-02T00:17:09;98851.59;;;8.57;65.52
60061;BME280;45933;51.336;12.612;2024-03-02T00:19:41;98852.53;;;8.53;65.66
60061;BME280;45933;51.336;12.612;2024-03-02T00:22:07;98846.47;;;8.53;65.65
60061;BME280;45933;51.336;12.612;2024-03-02T00:24:34;98845.59;;;8.54;65.43
60061;BME280;45933;51.336;12.612;2024-03-02T00:27:01;98843.94;;;8.50;65.73
60061;BME280;45933;51.336;12.612;2024-03-02T00:29:29;98841.34;;;8.50;65.08
60061;BME280;45933;51.336;12.612;2024-03-02T00:31:54;98842.22;;;8.49;65.63
60061;BME280;45933;51.336;12.612;2024-03-02T00:34:21;98836.22;;;8.45;65.27
60061;BME280;45933;51.336;12.612;2024-03-02T00:36:47;98840.56;;;8.45;65.19
60061;BME280;45933;51.336;12.612;2024-03-02T00:39:15;98840.59;;;8.42;65.99
60061;BME280;45933;51.336;12.612;2024-03-02T00:41:41;98838.09;;;8.38;65.59
60061;BME280;45933;51.336;12.612;2024-03-02T00:44:11;98831.19;;;8.36;66.17
60061;BME280;45933;51.336;12.612;2024-03-02T00:46:39;98828.59;;;8.33;65.68
60061;BME280;45933;51.336;12.612;2024-03-02T00:51:36;98824.31;;;8.30;65.59
60061;BME280;45933;51.336;12.612;2024-03-02T00:54:04;98826.91;;;8.30;65.75
60061;BME280;45933;51.336;12.612;2024-03-02T00:56:31;98830.41;;;8.29;65.69
60061;BME280;45933;51.336;12.612;2024-03-02T00:58:57;98829.56;;;8.27;65.77
60061;BME280;45933;51.336;12.612;2024-03-02T01:01:23;98823.53;;;8.25;65.97
60061;BME280;45933;51.336;12.612;2024-03-02T01:03:48;98828.72;;;8.25;65.81
60061;BME280;45933;51.336;12.612;2024-03-02T01:06:16;98838.25;;;8.25;66.21
60061;BME280;45933;51.336;12.612;2024-03-02T01:08:42;98831.34;;;8.24;66.09
60061;BME280;45933;51.336;12.612;2024-03-02T01:11:08;98830.50;;;8.23;66.29
60061;BME280;45933;51.336;12.612;2024-03-02T01:13:33;98819.28;;;8.23;66.27
60061;BME280;45933;51.336;12.612;2024-03-02T01:15:59;98815.78;;;8.22;66.38
60061;BME280;45933;51.336;12.612;2024-03-02T01:18:24;98814.94;;;8.23;66.43
60061;BME280;45933;51.336;12.612;2024-03-02T01:20:49;98818.38;;;8.24;66.41
60061;BME280;45933;51.336;12.612;2024-03-02T01:23:20;98807.13;;;8.23;66.70
60061;BME280;45933;51.336;12.612;2024-03-02T01:25:49;98813.16;;;8.25;66.36
60061;BME280;45933;51.336;12.612;2024-03-02T01:28:14;98812.34;;;8.23;66.60
60061;BME280;45933;51.336;12.612;2024-03-02T01:30:40;98816.66;;;8.23;66.61
60061;BME280;45933;51.336;12.612;2024-03-02T01:33:06;98814.94;;;8.23;66.44
60061;BME280;45933;51.336;12.612;2024-03-02T01:35:32;98814.03;;;8.24;66.44
60061;BME280;45933;51.336;12.612;2024-03-02T01:37:57;98815.75;;;8.25;66.43
60061;BME280;45933;51.336;12.612;2024-03-02T01:40:22;98819.19;;;8.26;65.98
60061;BME280;45933;51.336;12.612;2024-03-02T01:42:51;98825.25;;;8.26;66.50
60061;BME280;45933;51.336;12.612;2024-03-02T01:45:16;98820.91;;;8.27;66.45
60061;BME280;45933;51.336;12.612;2024-03-02T01:47:42;98818.31;;;8.27;66.43
60061;BME280;45933;51.336;12.612;2024-03-02T01:50:07;98825.28;;;8.25;67.03
60061;BME280;45933;51.336;12.612;2024-03-02T01:52:33;98836.56;;;8.24;67.02
60061;BME280;45933;51.336;12.612;2024-03-02T01:54:58;98826.94;;;8.27;66.63
60061;BME280;45933;51.336;12.612;2024-03-02T01:57:23;98829.63;;;8.24;67.25
60061;BME280;45933;51.336;12.612;2024-03-02T01:59:49;98823.69;;;8.18;67.87
60061;BME280;45933;51.336;12.612;2024-03-02T02:02:15;98826.16;;;8.22;67.42
60061;BME280;45933;51.336;12.612;2024-03-02T02:04:41;98827.91;;;8.23;67.41
60061;BME280;45933;51.336;12.612;2024-03-02T02:07:06;98821.88;;;8.21;67.85
60061;BME280;45933;51.336;12.612;2024-03-02T02:09:31;98817.47;;;8.26;66.86
60061;BME280;45933;51.336;12.612;2024-03-02T02:11:57;98819.19;;;8.26;67.28
60061;BME280;45933;51.336;12.612;2024-03-02T02:14:22;98810.44;;;8.31;66.43
60061;BME280;45933;51.336;12.612;2024-03-02T02:16:47;98819.09;;;8.32;66.63
60061;BME280;45933;51.336;12.612;2024-03-02T02:19:13;98815.59;;;8.33;66.54
60061;BME280;45933;51.336;12.612;2024-03-02T02:21:42;98816.47;;;8.35;66.74
60061;BME280;45933;51.336;12.612;2024-03-02T02:24:07;98818.19;;;8.33;66.76
60061;BME280;45933;51.336;12.612;2024-03-02T02:26:32;98813.91;;;8.33;66.60
60061;BME280;45933;51.336;12.612;2024-03-02T02:28:58;98818.19;;;8.36;66.68
60061;BME280;45933;51.336;12.612;2024-03-02T02:31:23;98818.16;;;8.37;66.31
60061;BME280;45933;51.336;12.612;2024-03-02T02:33:48;98819.88;;;8.40;66.58
60061;BME280;45933;51.336;12.612;2024-03-02T02:36:14;98811.22;;;8.40;66.62
60061;BME280;45933;51.336;12.612;2024-03-02T02:38:43;98809.38;;;8.46;66.54
60061;BME280;45933;51.336;12.612;2024-03-02T02:41:09;98806.81;;;8.43;66.60
60061;BME280;45933;51.336;12.612;2024-03-02T02:43:34;98806.81;;;8.45;66.64
60061;BME280;45933;51.336;12.612;2024-03-02T02:46:00;98805.06;;;8.45;66.30
60061;BME280;45933;51.336;12.612;2024-03-02T02:48:25;98805.88;;;8.47;66.19
60061;BME280;45933;51.336;12.612;2024-03-02T02:50:50;98810.19;;;8.48;66.37
60061;BME280;45933;51.336;12.612;2024-03-02T02:53:16;98810.16;;;8.51;66.31
60061;BME280;45933;51.336;12.612;2024-03-02T02:55:41;98810.13;;;8.53;66.40
60061;BME280;45933;51.336;12.612;2024-03-02T02:58:08;98810.97;;;8.53;66.35
60061;BME280;45933;51.336;12.612;2024-03-02T03:00:34;98805.78;;;8.53;66.53
60061;BME280;45933;51.336;12.612;2024-03-02T03:02:59;98809.22;;;8.55;66.45
60061;BME280;45933;51.336;12.612;2024-03-02T03:05:25;98807.47;;;8.56;66.52
60061;BME280;45933;51.336;12.612;2024-03-02T03:07:50;98810.03;;;8.57;66.22
60061;BME280;45933;51.336;12.612;2024-03-02T03:10:16;98808.28;;;8.58;66.15
60061;BME280;45933;51.336;12.612;2024-03-02T03:12:42;98811.78;;;8.57;66.64
60061;BME280;45933;51.336;12.612;2024-03-02T03:15:09;98813.53;;;8.56;66.46
60061;BME280;45933;51.336;12.612;2024-03-02T03:17:34;98819.53;;;8.58;66.38
60061;BME280;45933;51.336;12.612;2024-03-02T03:20:00;98819.56;;;8.57;66.15
60061;BME280;45933;51.336;12.612;2024-03-02T03:22:26;98817.88;;;8.56;66.19
60061;BME280;45933;51.336;12.612;2024-03-02T03:24:51;98818.72;;;8.56;66.59
60061;BME280;45933;51.336;12.612;2024-03-02T03:27:16;98827.41;;;8.55;66.56
60061;BME280;45933;51.336;12.612;2024-03-02T03:29:42;98823.06;;;8.56;66.67
60061;BME280;45933;51.336;12.612;2024-03-02T03:32:07;98826.47;;;8.58;66.28
60061;BME280;45933;51.336;12.612;2024-03-02T03:34:33;98825.66;;;8.56;66.56
60061;BME280;45933;51.336;12.612;2024-03-02T03:36:58;98826.56;;;8.53;66.71
60061;BME280;45933;51.336;12.612;2024-03-02T03:39:24;98823.06;;;8.56;66.54
60061;BME280;45933;51.336;12.612;2024-03-02T03:41:49;98829.09;;;8.56;66.74
60061;BME280;45933;51.336;12.612;2024-03-02T03:44:14;98823.91;;;8.56;67.20
60061;BME280;45933;51.336;12.612;2024-03-02T03:46:40;98833.41;;;8.57;66.82
60061;BME280;45933;51.336;12.612;2024-03-02T03:49:05;98827.38;;;8.57;66.89
60061;BME280;45933;51.336;12.612;2024-03-02T03:51:30;98837.75;;;8.57;66.81
60061;BME280;45933;51.336;12.612;2024-03-02T03:53:56;98835.25;;;8.51;67.39
60061;BME280;45933;51.336;12.612;2024-03-02T03:56:21;98831.78;;;8.52;67.62
60061;BME280;45933;51.336;12.612;2024-03-02T03:58:46;98822.19;;;8.55;67.30
60061;BME280;45933;51.336;12.612;2024-03-02T04:01:11;98836.97;;;8.52;67.76
60061;BME280;45933;51.336;12.612;2024-03-02T04:03:38;98835.47;;;8.38;68.79
60061;BME280;45933;51.336;12.612;2024-03-02T04:06:03;98844.84;;;8.47;68.55
60061;BME280;45933;51.336;12.612;2024-03-02T04:08:28;98843.13;;;8.46;68.59
60061;BME280;45933;51.336;12.612;2024-03-02T04:10:54;98842.16;;;8.52;68.20
60061;BME280;45933;51.336;12.612;2024-03-02T04:13:19;98842.13;;;8.53;68.17
60061;BME280;45933;51.336;12.612;2024-03-02T04:15:44;98847.28;;;8.56;67.72
60061;BME280;45933;51.336;12.612;2024-03-02T04:18:09;98849.00;;;8.57;67.83
60061;BME280;45933;51.336;12.612;2024-03-02T04:20:35;98847.28;;;8.56;68.57
60061;BME280;45933;51.336;12.612;2024-03-02T04:23:00;98855.03;;;8.59;67.91
60061;BME280;45933;51.336;12.612;2024-03-02T04:25:25;98847.25;;;8.58;68.34
60061;BME280;45933;51.336;12.612;2024-03-02T04:27:51;98848.97;;;8.59;67.87
60061;BME280;45933;51.336;12.612;2024-03-02T04:30:16;98846.31;;;8.62;68.05
60061;BME280;45933;51.336;12.612;2024-03-02T04:32:41;98842.91;;;8.58;68.32
60061;BME280;45933;51.336;12.612;2024-03-02T04:35:11;98853.22;;;8.63;67.77
60061;BME280;45933;51.336;12.612;2024-03-02T04:37:36;98861.88;;;8.63;67.89
60061;BME280;45933;51.336;12.612;2024-03-02T04:40:01;98860.13;;;8.66;67.58
60061;BME280;45933;51.336;12.612;2024-03-02T04:42:27;98860.97;;;8.66;67.89
60061;BME280;45933;51.336;12.612;2024-03-02T04:44:52;98866.13;;;8.68;67.22
60061;BME280;45933;51.336;12.612;2024-03-02T04:47:17;98869.66;;;8.65;67.65
60061;BME280;45933;51.336;12.612;2024-03-02T04:49:43;98868.81;;;8.63;67.95
60061;BME280;45933;51.336;12.612;2024-03-02T04:52:08;98875.72;;;8.66;67.59
60061;BME280;45933;51.336;12.612;2024-03-02T04:54:34;98867.09;;;8.62;67.94
60061;BME280;45933;51.336;12.612;2024-03-02T04:57:19;98876.59;;;8.63;68.38
60061;BME280;45933;51.336;12.612;2024-03-02T04:59:44;98873.97;;;8.64;67.92
60061;BME280;45933;51.336;12.612;2024-03-02T05:02:09;98867.91;;;8.64;68.17
60061;BME280;45933;51.336;12.612;2024-03-02T05:04:35;98875.72;;;8.66;68.43
60061;BME280;45933;51.336;12.612;2024-03-02T05:07:00;98862.75;;;8.62;68.40
60061;BME280;45933;51.336;12.612;2024-03-02T05:09:25;98870.63;;;8.59;68.71
60061;BME280;45933;51.336;12.612;2024-03-02T05:11:50;98873.28;;;8.55;69.06
60061;BME280;45933;51.336;12.612;2024-03-02T05:14:34;98865.44;;;8.59;68.56
60061;BME280;45933;51.336;12.612;2024-03-02T05:17:00;98873.19;;;8.61;67.99
60061;BME280;45933;51.336;12.612;2024-03-02T05:19:25;98866.38;;;8.55;68.76
60061;BME280;45933;51.336;12.612;2024-03-02T05:21:50;98877.53;;;8.59;68.57
60061;BME280;45933;51.336;12.612;2024-03-02T05:24:16;98881.09;;;8.53;68.89
60061;BME280;45933;51.336;12.612;2024-03-02T05:26:42;98883.66;;;8.56;68.32
60061;BME280;45933;51.336;12.612;2024-03-02T05:29:07;98887.19;;;8.52;68.72
60061;BME280;45933;51.336;12.612;2024-03-02T05:31:32;98882.78;;;8.56;68.06
60061;BME280;45933;51.336;12.612;2024-03-02T05:33:57;98887.06;;;8.58;68.37
60061;BME280;45933;51.336;12.612;2024-03-02T05:36:23;98891.44;;;8.56;68.67
60061;BME280;45933;51.336;12.612;2024-03-02T05:38:48;98894.03;;;8.56;68.46
60061;BME280;45933;51.336;12.612;2024-03-02T05:41:13;98896.69;;;8.53;69.06
60061;BME280;45933;51.336;12.612;2024-03-02T05:43:39;98898.41;;;8.54;68.83
60061;BME280;45933;51.336;12.612;2024-03-02T05:46:04;98902.66;;;8.58;68.27
60061;BME280;45933;51.336;12.612;2024-03-02T05:48:29;98903.63;;;8.54;68.59
60061;BME280;45933;51.336;12.612;2024-03-02T05:50:54;98909.66;;;8.55;68.63
60061;BME280;45933;51.336;12.612;2024-03-02T05:53:20;98909.59;;;8.58;68.38
60061;BME280;45933;51.336;12.612;2024-03-02T05:55:45;98913.13;;;8.55;68.39
60061;BME280;45933;51.336;12.612;2024-03-02T05:58:10;98919.97;;;8.58;68.33
60061;BME280;45933;51.336;12.612;2024-03-02T06:00:58;98919.09;;;8.59;68.36
60061;BME280;45933;51.336;12.612;2024-03-02T06:03:24;98922.56;;;8.59;68.20
60061;BME280;45933;51.336;12.612;2024-03-02T06:05:49;98924.28;;;8.59;67.70
60061;BME280;45933;51.336;12.612;2024-03-02T06:08:15;98922.66;;;8.55;68.20
60061;BME280;45933;51.336;12.612;2024-03-02T06:10:40;98919.09;;;8.59;68.37
60061;BME280;45933;51.336;12.612;2024-03-02T06:13:05;98921.66;;;8.62;67.54
60061;BME280;45933;51.336;12.612;2024-03-02T06:15:30;98927.75;;;8.61;67.75
60061;BME280;45933;51.336;12.612;2024-03-02T06:17:55;98919.97;;;8.59;68.08
60061;BME280;45933;51.336;12.612;2024-03-02T06:20:21;98925.19;;;8.58;68.17
60061;BME280;45933;51.336;12.612;2024-03-02T06:22:46;98920.91;;;8.55;68.24
60061;BME280;45933;51.336;12.612;2024-03-02T06:25:11;98923.44;;;8.60;67.96
60061;BME280;45933;51.336;12.612;2024-03-02T06:27:38;98926.91;;;8.57;68.31
60061;BME280;45933;51.336;12.612;2024-03-02T06:30:03;98927.78;;;8.58;67.73
60061;BME280;45933;51.336;12.612;2024-03-02T06:32:29;98939.97;;;8.54;68.00
60061;BME280;45933;51.336;12.612;2024-03-02T06:34:54;98929.47;;;8.59;67.87
60061;BME280;45933;51.336;12.612;2024-03-02T06:37:19;98930.31;;;8.62;67.63
60061;BME280;45933;51.336;12.612;2024-03-02T06:39:45;98929.47;;;8.59;67.93
60061;BME280;45933;51.336;12.612;2024-03-02T06:42:10;98932.91;;;8.62;67.51
60061;BME280;45933;51.336;12.612;2024-03-02T06:44:35;98931.22;;;8.60;68.01
60061;BME280;45933;51.336;12.612;2024-03-02T06:47:00;98938.13;;;8.61;67.59
60061;BME280;45933;51.336;12.612;2024-03-02T06:49:25;98936.31;;;8.64;67.50
60061;BME280;45933;51.336;12.612;2024-03-02T06:51:51;98936.28;;;8.68;67.40
60061;BME280;45933;51.336;12.612;2024-03-02T06:54:16;98938.81;;;8.72;67.33
60061;BME280;45933;51.336;12.612;2024-03-02T06:56:41;98941.41;;;8.72;67.69
60061;BME280;45933;51.336;12.612;2024-03-02T06:59:06;98937.06;;;8.73;67.44
60061;BME280;45933;51.336;12.612;2024-03-02T07:01:32;98942.22;;;8.76;67.35
60061;BME280;45933;51.336;12.612;2024-03-02T07:03:57;98937.88;;;8.76;67.26
60061;BME280;45933;51.336;12.612;2024-03-02T07:06:23;98942.22;;;8.76;67.51
60061;BME280;45933;51.336;12.612;2024-03-02T07:08:48;98943.19;;;8.70;68.02
60061;BME280;45933;51.336;12.612;2024-03-02T07:11:13;98941.31;;;8.78;67.36
60061;BME280;45933;51.336;12.612;2024-03-02T07:13:38;98942.97;;;8.82;67.41
60061;BME280;45933;51.336;12.612;2024-03-02T07:16:04;98940.34;;;8.84;67.21
60061;BME280;45933;51.336;12.612;2024-03-02T07:18:30;98933.31;;;8.89;67.31
60061;BME280;45933;51.336;12.612;2024-03-02T07:20:59;98943.69;;;8.92;67.46
60061;BME280;45933;51.336;12.612;2024-03-02T07:23:29;98941.88;;;8.96;67.25
60061;BME280;45933;51.336;12.612;2024-03-02T07:25:55;98947.00;;;9.00;67.02
60061;BME280;45933;51.336;12.612;2024-03-02T07:28:24;98953.00;;;9.04;66.66
60061;BME280;45933;51.336;12.612;2024-03-02T07:31:02;98957.19;;;9.12;66.63
60061;BME280;45933;51.336;12.612;2024-03-02T07:33:29;98954.59;;;9.11;66.84
60061;BME280;45933;51.336;12.612;2024-03-02T07:35:54;98961.47;;;9.15;66.66
60061;BME280;45933;51.336;12.612;2024-03-02T07:38:20;98954.50;;;9.17;66.41
60061;BME280;45933;51.336;12.612;2024-03-02T07:40:46;98964.81;;;9.22;66.40
60061;BME280;45933;51.336;12.612;2024-03-02T07:43:12;98959.59;;;9.23;66.88
60061;BME280;45933;51.336;12.612;2024-03-02T07:45:37;98961.25;;;9.27;66.46
60061;BME280;45933;51.336;12.612;2024-03-02T07:48:03;98960.38;;;9.27;66.75
60061;BME280;45933;51.336;12.612;2024-03-02T07:50:31;98967.22;;;9.34;66.49
60061;BME280;45933;51.336;12.612;2024-03-02T07:52:56;98963.69;;;9.36;66.42
60061;BME280;45933;51.336;12.612;2024-03-02T07:55:21;98967.97;;;9.39;66.50
60061;BME280;45933;51.336;12.612;2024-03-02T07:57:48;98969.63;;;9.43;66.49
60061;BME280;45933;51.336;12.612;2024-03-02T08:00:14;98966.94;;;9.49;66.35
60061;BME280;45933;51.336;12.612;2024-03-02T08:02:40;98967.69;;;9.53;66.26
60061;BME280;45933;51.336;12.612;2024-03-02T08:05:07;98971.19;;;9.52;66.43
60061;BME280;45933;51.336;12.612;2024-03-02T08:07:32;98971.13;;;9.56;66.56
60061;BME280;45933;51.336;12.612;2024-03-02T08:09:58;98972.69;;;9.63;66.11
60061;BME280;45933;51.336;12.612;2024-03-02T08:12:23;98977.09;;;9.61;66.00
60061;BME280;45933;51.336;12.612;2024-03-02T08:14:48;98977.78;;;9.69;65.73
60061;BME280;45933;51.336;12.612;2024-03-02T08:17:14;98984.72;;;9.71;66.33
60061;BME280;45933;51.336;12.612;2024-03-02T08:19:39;98987.22;;;9.75;66.06
60061;BME280;45933;51.336;12.612;2024-03-02T08:22:04;98989.72;;;9.80;65.87
60061;BME280;45933;51.336;12.612;2024-03-02T08:24:29;98988.81;;;9.82;65.78
60061;BME280;45933;51.336;12.612;2024-03-02T08:26:55;98995.69;;;9.86;65.62
60061;BME280;45933;51.336;12.612;2024-03-02T08:29:20;98992.16;;;9.89;66.05
60061;BME280;45933;51.336;12.612;2024-03-02T08:31:45;98992.97;;;9.91;66.06
60061;BME280;45933;51.336;12.612;2024-03-02T08:34:10;98997.22;;;9.95;65.71
60061;BME280;45933;51.336;12.612;2024-03-02T08:36:36;99000.63;;;9.99;65.39
60061;BME280;45933;51.336;12.612;2024-03-02T08:39:01;99001.53;;;9.96;65.77
60061;BME280;45933;51.336;12.612;2024-03-02T08:41:28;98999.69;;;10.01;65.51
60061;BME280;45933;51.336;12.612;2024-03-02T08:43:53;98992.66;;;10.08;65.41
60061;BME280;45933;51.336;12.612;2024-03-02T08:46:19;99000.38;;;10.12;65.59
60061;BME280;45933;51.336;12.612;2024-03-02T08:48:44;98995.88;;;10.17;65.33
60061;BME280;45933;51.336;12.612;2024-03-02T08:51:10;99005.34;;;10.23;65.43
60061;BME280;45933;51.336;12.612;2024-03-02T08:53:36;99002.63;;;10.29;65.25
60061;BME280;45933;51.336;12.612;2024-03-02T08:56:01;99004.34;;;10.30;65.29
60061;BME280;45933;51.336;12.612;2024-03-02T08:58:26;99004.06;;;10.42;65.18
60061;BME280;45933;51.336;12.612;2024-03-02T09:00:52;99008.31;;;10.46;64.92
60061;BME280;45933;51.336;12.612;2024-03-02T09:03:17;99007.34;;;10.52;64.75
60061;BME280;45933;51.336;12.612;2024-03-02T09:05:42;99015.97;;;10.54;64.70
60061;BME280;45933;51.336;12.612;2024-03-02T09:08:08;99013.16;;;10.63;64.18
60061;BME280;45933;51.336;12.612;2024-03-02T09:10:33;99014.84;;;10.66;64.51
60061;BME280;45933;51.336;12.612;2024-03-02T09:12:58;99012.81;;;10.79;64.70
60061;BME280;45933;51.336;12.612;2024-03-02T09:15:24;99008.28;;;10.87;64.05
60061;BME280;45933;51.336;12.612;2024-03-02T09:17:50;99003.72;;;10.95;64.16
60061;BME280;45933;51.336;12.612;2024-03-02T09:20:15;99015.72;;;11.02;63.29
60061;BME280;45933;51.336;12.612;2024-03-02T09:22:41;99015.53;;;11.10;63.38
60061;BME280;45933;51.336;12.612;2024-03-02T09:25:07;99011.63;;;11.26;63.38
60061;BME280;45933;51.336;12.612;2024-03-02T09:27:36;99015.84;;;11.32;62.21
60061;BME280;45933;51.336;12.612;2024-03-02T09:30:01;99016.69;;;11.34;62.67
60061;BME280;45933;51.336;12.612;2024-03-02T09:32:29;99013.06;;;11.38;62.50
60061;BME280;45933;51.336;12.612;2024-03-02T09:34:57;99022.44;;;11.46;62.74
60061;BME280;45933;51.336;12.612;2024-03-02T09:37:23;99025.66;;;11.56;62.22
60061;BME280;45933;51.336;12.612;2024-03-02T09:39:48;99021.19;;;11.61;62.29
60061;BME280;45933;51.336;12.612;2024-03-02T09:42:14;99024.53;;;11.65;61.80
60061;BME280;45933;51.336;12.612;2024-03-02T09:44:39;99013.06;;;11.70;61.79
60061;BME280;45933;51.336;12.612;2024-03-02T09:47:04;99020.78;;;11.75;61.32
60061;BME280;45933;51.336;12.612;2024-03-02T09:49:30;99016.28;;;11.80;61.84
60061;BME280;45933;51.336;12.612;2024-03-02T09:51:56;99020.50;;;11.87;60.83
60061;BME280;45933;51.336;12.612;2024-03-02T09:54:22;99023.00;;;11.92;61.39
60061;BME280;45933;51.336;12.612;2024-03-02T09:56:47;99022.84;;;11.96;61.05
60061;BME280;45933;51.336;12.612;2024-03-02T09:59:12;99017.41;;;12.04;61.24
60061;BME280;45933;51.336;12.612;2024-03-02T10:01:55;99018.84;;;12.14;60.58
60061;BME280;45933;51.336;12.612;2024-03-02T10:04:21;99018.69;;;12.20;60.62
60061;BME280;45933;51.336;12.612;2024-03-02T10:06:47;99014.94;;;12.29;60.03
60061;BME280;45933;51.336;12.612;2024-03-02T10:09:27;99018.72;;;12.48;60.19
60061;BME280;45933;51.336;12.612;2024-03-02T10:11:52;99023.75;;;12.54;60.06
60061;BME280;45933;51.336;12.612;2024-03-02T10:14:18;99012.06;;;12.66;59.50
60061;BME280;45933;51.336;12.612;2024-03-02T10:16:44;99016.19;;;12.73;58.71
60061;BME280;45933;51.336;12.612;2024-03-02T10:19:20;99013.91;;;12.91;59.07
60061;BME280;45933;51.336;12.612;2024-03-02T10:21:50;99019.00;;;12.95;57.78
60061;BME280;45933;51.336;12.612;2024-03-02T10:24:17;99008.38;;;13.00;58.08
60061;BME280;45933;51.336;12.612;2024-03-02T10:26:42;99014.75;;;13.18;57.21
60061;BME280;45933;51.336;12.612;2024-03-02T10:29:09;99011.56;;;13.36;56.86
60061;BME280;45933;51.336;12.612;2024-03-02T10:31:37;99002.50;;;13.46;55.74
60061;BME280;45933;51.336;12.612;2024-03-02T10:34:02;98990.81;;;13.56;55.27
60061;BME280;45933;51.336;12.612;2024-03-02T10:36:28;98997.97;;;13.76;54.46
60061;BME280;45933;51.336;12.612;2024-03-02T10:38:56;98997.34;;;13.93;54.77
60061;BME280;45933;51.336;12.612;2024-03-02T10:41:23;99001.34;;;14.03;55.25
60061;BME280;45933;51.336;12.612;2024-03-02T10:43:51;99000.66;;;14.22;52.94
60061;BME280;45933;51.336;12.612;2024-03-02T10:46:19;98986.09;;;14.60;53.53
60061;BME280;45933;51.336;12.612;2024-03-02T10:48:45;98984.25;;;15.06;54.30
60061;BME280;45933;51.336;12.612;2024-03-02T10:51:11;98989.66;;;15.43;53.32
60061;BME280;45933;51.336;12.612;2024-03-02T10:53:37;98987.38;;;15.77;51.40
60061;BME280;45933;51.336;12.612;2024-03-02T10:56:03;98987.44;;;16.14;51.41
60061;BME280;45933;51.336;12.612;2024-03-02T10:58:32;98984.88;;;16.32;50.10
60061;BME280;45933;51.336;12.612;2024-03-02T11:01:02;98984.72;;;16.54;49.94
60061;BME280;45933;51.336;12.612;2024-03-02T11:03:32;98978.19;;;16.62;48.24
60061;BME280;45933;51.336;12.612;2024-03-02T11:05:59;98972.75;;;16.65;49.01
60061;BME280;45933;51.336;12.612;2024-03-02T11:08:27;98966.66;;;16.84;48.75
60061;BME280;45933;51.336;12.612;2024-03-02T11:11:06;98958.94;;;16.98;47.29
60061;BME280;45933;51.336;12.612;2024-03-02T11:13:33;98959.25;;;17.27;46.57
60061;BME280;45933;51.336;12.612;2024-03-02T11:16:03;98964.78;;;17.55;46.77
60061;BME280;45933;51.336;12.612;2024-03-02T11:18:31;98970.69;;;17.77;46.53
60061;BME280;45933;51.336;12.612;2024-03-02T11:20:57;98971.69;;;18.08;46.07
60061;BME280;45933;51.336;12.612;2024-03-02T11:23:34;98968.06;;;18.42;47.10
60061;BME280;45933;51.336;12.612;2024-03-02T11:26:18;98971.41;;;18.77;46.09
60061;BME280;45933;51.336;12.612;2024-03-02T11:28:44;98966.25;;;19.06;42.65
60061;BME280;45933;51.336;12.612;2024-03-02T11:31:09;98958.16;;;19.53;43.09
60061;BME280;45933;51.336;12.612;2024-03-02T11:33:34;98958.88;;;19.85;43.03
60061;BME280;45933;51.336;12.612;2024-03-02T11:36:00;98953.47;;;20.16;40.19
60061;BME280;45933;51.336;12.612;2024-03-02T11:38:28;98950.56;;;20.61;40.84
60061;BME280;45933;51.336;12.612;2024-03-02T11:40:53;98950.13;;;20.82;40.17
60061;BME280;45933;51.336;12.612;2024-03-02T11:43:20;98946.47;;;20.97;38.11
60061;BME280;45933;51.336;12.612;2024-03-02T11:45:46;98942.34;;;21.33;39.10
60061;BME280;45933;51.336;12.612;2024-03-02T11:48:13;98937.03;;;21.46;38.77
60061;BME280;45933;51.336;12.612;2024-03-02T11:53:07;98943.72;;;21.51;36.85
60061;BME280;45933;51.336;12.612;2024-03-02T11:55:36;98944.38;;;21.80;37.83
60061;BME280;45933;51.336;12.612;2024-03-02T11:58:03;98937.16;;;21.82;37.63
60061;BME280;45933;51.336;12.612;2024-03-02T12:00:28;98939.91;;;21.81;36.03
60061;BME280;45933;51.336;12.612;2024-03-02T12:03:01;98938.84;;;22.22;37.71
60061;BME280;45933;51.336;12.612;2024-03-02T12:05:27;98942.75;;;22.29;35.41
60061;BME280;45933;51.336;12.612;2024-03-02T12:07:57;98933.22;;;22.50;35.73
60061;BME280;45933;51.336;12.612;2024-03-02T12:10:23;98933.47;;;22.71;36.36
60061;BME280;45933;51.336;12.612;2024-03-02T12:12:58;98927.47;;;22.80;33.49
60061;BME280;45933;51.336;12.612;2024-03-02T12:15:25;98923.91;;;22.92;35.22
60061;BME280;45933;51.336;12.612;2024-03-02T12:17:55;98925.44;;;23.08;34.53
60061;BME280;45933;51.336;12.612;2024-03-02T12:20:20;98913.50;;;23.13;34.39
60061;BME280;45933;51.336;12.612;2024-03-02T12:22:46;98921.41;;;23.26;34.37
60061;BME280;45933;51.336;12.612;2024-03-02T12:25:11;98908.84;;;23.39;34.22
60061;BME280;45933;51.336;12.612;2024-03-02T12:27:39;98906.78;;;23.32;34.13
60061;BME280;45933;51.336;12.612;2024-03-02T12:30:05;98906.19;;;23.51;33.54
60061;BME280;45933;51.336;12.612;2024-03-02T12:32:33;98908.50;;;23.44;32.40
60061;BME280;45933;51.336;12.612;2024-03-02T12:34:58;98898.91;;;23.30;31.76
60061;BME280;45933;51.336;12.612;2024-03-02T12:37:24;98900.16;;;23.48;33.73
60061;BME280;45933;51.336;12.612;2024-03-02T12:39:49;98896.53;;;23.49;33.81
60061;BME280;45933;51.336;12.612;2024-03-02T12:42:14;98893.16;;;23.59;34.12
60061;BME280;45933;51.336;12.612;2024-03-02T12:44:39;98889.38;;;23.39;33.46
60061;BME280;45933;51.336;12.612;2024-03-02T12:47:05;98885.88;;;23.49;33.54
60061;BME280;45933;51.336;12.612;2024-03-02T12:49:30;98884.06;;;23.50;32.81
60061;BME280;45933;51.336;12.612;2024-03-02T12:51:57;98883.88;;;23.64;32.77
60061;BME280;45933;51.336;12.612;2024-03-02T12:54:22;98881.06;;;23.55;32.69
60061;BME280;45933;51.336;12.612;2024-03-02T12:56:48;98874.72;;;23.68;32.91